Time;durP1;ratioP1;P1;durP2;ratioP2;P2;SDS_P1;SDS_P2;PMS_P1;PMS_P2;Temp;Humidity;BMP_temperature;BMP_pressure;BME280_temperature;BME280_humidity;BME280_pressure;Samples;Min_cycle;Max_cycle;Signal;HPM_P1;HPM_P2
2023/08/26 00:02:19;;;;;;;13.73;6.63;;;23.10;78.20;;;;;;4862929;29;20072;-88
2023/08/26 00:04:47;;;;;;;11.80;6.15;;;23.10;78.40;;;;;;4862260;29;20045;-88
2023/08/26 00:07:14;;;;;;;12.98;7.20;;;23.10;78.10;;;;;;4847766;29;20111;-89
2023/08/26 00:09:41;;;;;;;9.98;6.05;;;23.00;78.40;;;;;;4862381;29;20570;-89
2023/08/26 00:12:09;;;;;;;11.77;6.90;;;23.00;78.40;;;;;;4847500;29;20085;-89
2023/08/26 00:14:36;;;;;;;11.32;6.32;;;23.00;78.40;;;;;;4862169;29;20522;-89
2023/08/26 00:17:04;;;;;;;14.57;6.22;;;23.00;78.20;;;;;;4862288;29;20041;-89
2023/08/26 00:19:31;;;;;;;12.07;6.88;;;23.00;78.10;;;;;;4862246;29;20147;-88
2023/08/26 00:22:00;;;;;;;11.52;6.85;;;22.90;78.30;;;;;;4862116;29;20052;-89
2023/08/26 00:24:27;;;;;;;10.53;6.17;;;22.90;78.30;;;;;;4862208;29;20081;-88
2023/08/26 00:26:55;;;;;;;12.13;7.28;;;22.90;78.10;;;;;;4861944;29;20427;-89
2023/08/26 00:29:22;;;;;;;13.38;7.10;;;22.80;78.10;;;;;;4862388;29;20056;-89
2023/08/26 00:31:49;;;;;;;10.40;6.55;;;22.80;78.40;;;;;;4846798;29;20061;-89
2023/08/26 00:34:16;;;;;;;12.98;7.05;;;22.80;78.20;;;;;;4862209;29;20144;-89
2023/08/26 00:36:43;;;;;;;11.27;6.67;;;22.90;78.30;;;;;;4846406;29;20053;-88
2023/08/26 00:39:11;;;;;;;11.20;6.72;;;22.80;78.10;;;;;;4861903;29;20555;-89
2023/08/26 00:41:38;;;;;;;13.77;7.18;;;22.80;78.20;;;;;;4861765;29;20045;-89
2023/08/26 00:44:05;;;;;;;12.77;6.85;;;22.80;78.30;;;;;;4861746;29;20049;-89
2023/08/26 00:46:34;;;;;;;11.32;6.75;;;22.80;78.30;;;;;;4846674;29;20049;-88
2023/08/26 00:49:01;;;;;;;11.57;6.40;;;22.80;78.20;;;;;;4861725;29;20072;-89
2023/08/26 00:51:29;;;;;;;9.15;6.22;;;22.70;78.10;;;;;;4846520;29;20046;-89
2023/08/26 00:53:56;;;;;;;10.55;6.15;;;22.70;78.40;;;;;;4861506;29;20060;-89
2023/08/26 00:56:23;;;;;;;13.70;6.53;;;22.70;78.10;;;;;;4846094;29;20050;-88
2023/08/26 00:58:50;;;;;;;13.25;6.55;;;22.70;77.90;;;;;;4861452;29;20519;-89
2023/08/26 01:01:19;;;;;;;9.17;5.80;;;22.80;77.80;;;;;;4846240;29;20054;-88
2023/08/26 01:03:46;;;;;;;10.60;6.10;;;22.80;77.90;;;;;;4861409;29;20052;-89
2023/08/26 01:06:13;;;;;;;12.68;6.68;;;22.90;77.90;;;;;;4849334;29;20068;-89
2023/08/26 01:08:40;;;;;;;11.73;6.63;;;22.90;77.60;;;;;;4880227;29;20044;-89
2023/08/26 01:11:39;;;;;;;11.40;5.40;;;22.90;77.50;;;;;;4879940;29;20067;-89
2023/08/26 01:14:22;;;;;;;10.93;5.97;;;22.90;77.30;;;;;;4880361;29;20057;-89
2023/08/26 01:16:49;;;;;;;10.13;6.13;;;22.90;77.50;;;;;;4880268;29;20059;-89
2023/08/26 01:19:37;;;;;;;12.30;6.45;;;22.90;77.60;;;;;;4864357;29;20045;-88
2023/08/26 01:22:09;;;;;;;13.88;6.15;;;22.80;77.20;;;;;;4879619;29;20053;-89
2023/08/26 01:24:39;;;;;;;11.43;5.80;;;22.80;77.30;;;;;;4848939;29;20131;-89
2023/08/26 01:27:07;;;;;;;11.90;5.80;;;22.90;77.30;;;;;;4864168;29;20057;-88
2023/08/26 01:29:35;;;;;;;11.80;6.00;;;22.90;77.00;;;;;;4864183;29;20084;-88
2023/08/26 01:32:08;;;;;;;12.52;5.97;;;22.90;77.00;;;;;;4879849;29;20418;-89
2023/08/26 01:34:38;;;;;;;10.43;6.05;;;22.80;77.00;;;;;;4864006;29;20052;-89
2023/08/26 01:37:11;;;;;;;9.75;5.97;;;22.80;76.90;;;;;;4879573;29;20068;-89
2023/08/26 01:39:40;;;;;;;12.10;5.77;;;22.90;77.00;;;;;;4879611;29;20078;-88
2023/08/26 01:42:09;;;;;;;10.82;6.40;;;22.80;76.90;;;;;;4864129;29;20411;-89
2023/08/26 01:44:37;;;;;;;11.35;6.22;;;22.80;77.20;;;;;;4879712;29;20105;-88
2023/08/26 01:47:04;;;;;;;11.55;6.25;;;22.80;77.30;;;;;;4848880;29;20510;-88
2023/08/26 01:49:31;;;;;;;11.23;6.68;;;22.80;77.40;;;;;;4864136;29;20075;-89
2023/08/26 01:51:58;;;;;;;11.63;5.80;;;22.70;77.60;;;;;;4863976;29;20052;-88
2023/08/26 01:54:25;;;;;;;9.68;5.97;;;22.80;77.60;;;;;;4879410;29;20053;-88
2023/08/26 01:56:52;;;;;;;11.77;6.40;;;22.70;77.30;;;;;;4879461;29;20095;-89
2023/08/26 01:59:20;;;;;;;11.38;6.13;;;22.70;77.60;;;;;;4848462;29;20045;-89
2023/08/26 02:01:47;;;;;;;13.88;7.07;;;22.70;77.60;;;;;;4879403;29;20045;-89
2023/08/26 02:04:14;;;;;;;12.93;7.07;;;22.70;77.60;;;;;;4879411;29;20045;-89
2023/08/26 02:06:42;;;;;;;14.75;7.10;;;22.70;77.50;;;;;;4879102;29;20092;-89
2023/08/26 02:09:09;;;;;;;14.43;7.25;;;22.70;77.50;;;;;;4879358;29;20053;-89
2023/08/26 02:11:36;;;;;;;12.90;7.35;;;22.60;77.40;;;;;;4882995;29;20049;-89
2023/08/26 02:14:03;;;;;;;12.07;7.15;;;22.70;77.30;;;;;;4867729;29;20140;-89
2023/08/26 02:16:30;;;;;;;12.93;6.60;;;22.70;77.40;;;;;;4882919;29;20105;-88
2023/08/26 02:18:57;;;;;;;13.88;6.97;;;22.70;77.40;;;;;;4867524;29;20049;-88
2023/08/26 02:21:24;;;;;;;10.57;6.97;;;22.70;77.30;;;;;;4867422;29;20089;-89
2023/08/26 02:23:51;;;;;;;10.48;6.93;;;22.70;77.50;;;;;;4867224;29;20060;-88
2023/08/26 02:26:18;;;;;;;13.75;7.38;;;22.60;77.40;;;;;;4882844;29;20056;-88
2023/08/26 02:28:45;;;;;;;11.30;6.97;;;22.60;77.50;;;;;;4882735;29;20148;-88
2023/08/26 02:31:12;;;;;;;13.00;6.82;;;22.60;77.30;;;;;;4882849;29;20053;-88
2023/08/26 02:33:40;;;;;;;10.43;5.82;;;22.60;77.10;;;;;;4867034;29;20566;-89
2023/08/26 02:36:07;;;;;;;11.05;6.20;;;22.70;76.90;;;;;;4851709;29;20045;-88
2023/08/26 02:38:34;;;;;;;12.77;7.05;;;22.80;76.80;;;;;;4867226;29;20133;-88
2023/08/26 02:41:02;;;;;;;11.90;6.90;;;22.70;77.00;;;;;;4867050;29;20048;-88
2023/08/26 02:43:29;;;;;;;13.88;6.80;;;22.60;77.10;;;;;;4882801;29;20411;-88
2023/08/26 02:45:58;;;;;;;11.07;6.50;;;22.70;77.00;;;;;;4882279;29;20499;-88
2023/08/26 02:48:26;;;;;;;12.35;7.15;;;22.70;77.10;;;;;;4867047;29;20049;-89
2023/08/26 02:50:57;;;;;;;12.50;6.75;;;22.60;77.10;;;;;;4851551;29;20101;-88
2023/08/26 02:53:25;;;;;;;14.87;7.30;;;22.60;77.10;;;;;;4882836;29;20055;-88
2023/08/26 02:55:53;;;;;;;14.00;7.90;;;22.70;76.80;;;;;;4866459;29;20513;-89
2023/08/26 02:58:22;;;;;;;13.68;8.02;;;22.70;77.00;;;;;;4866884;29;20055;-88
2023/08/26 03:00:49;;;;;;;15.40;8.18;;;22.60;77.30;;;;;;4882250;29;20414;-88
2023/08/26 03:03:16;;;;;;;17.65;8.80;;;22.70;77.30;;;;;;4866647;29;20419;-88
2023/08/26 03:05:43;;;;;;;12.73;7.13;;;22.60;77.20;;;;;;4866800;29;20041;-88
2023/08/26 03:08:10;;;;;;;17.67;7.53;;;22.70;77.20;;;;;;4866735;29;20096;-89
2023/08/26 03:10:37;;;;;;;13.75;8.18;;;22.70;77.20;;;;;;4881922;29;20053;-88
2023/08/26 03:13:10;;;;;;;12.35;7.22;;;22.70;77.40;;;;;;4866280;29;20049;-88
2023/08/26 03:15:37;;;;;;;15.80;8.38;;;22.70;77.30;;;;;;4882100;29;20136;-88
2023/08/26 03:18:04;;;;;;;13.67;7.63;;;22.60;77.40;;;;;;4866199;29;20045;-88
2023/08/26 03:20:32;;;;;;;14.82;8.63;;;22.70;77.40;;;;;;4881691;29;20049;-88
2023/08/26 03:22:59;;;;;;;15.55;8.55;;;22.70;77.40;;;;;;4881700;29;20061;-88
2023/08/26 03:25:27;;;;;;;14.07;8.48;;;22.70;77.30;;;;;;4881865;29;20053;-88
2023/08/26 03:27:54;;;;;;;15.00;9.02;;;22.70;77.30;;;;;;4881748;29;20052;-88
2023/08/26 03:30:22;;;;;;;16.77;9.43;;;22.70;77.20;;;;;;4881779;29;20080;-89
2023/08/26 03:32:52;;;;;;;14.90;8.52;;;22.70;77.40;;;;;;4882081;29;20052;-88
2023/08/26 03:35:19;;;;;;;13.70;9.15;;;22.70;77.40;;;;;;4881636;29;20063;-88
2023/08/26 03:37:46;;;;;;;16.55;9.55;;;22.70;77.40;;;;;;4881680;29;20055;-88
2023/08/26 03:40:13;;;;;;;17.17;9.23;;;22.60;77.30;;;;;;4866151;29;20045;-88
2023/08/26 03:42:41;;;;;;;14.67;8.50;;;22.60;77.60;;;;;;4865856;29;20049;-88
2023/08/26 03:45:08;;;;;;;13.68;8.50;;;22.60;77.70;;;;;;4850446;29;20049;-89
2023/08/26 03:47:36;;;;;;;17.23;9.82;;;22.60;77.70;;;;;;4881521;29;20075;-88
2023/08/26 03:50:03;;;;;;;17.88;8.68;;;22.60;77.80;;;;;;4881572;29;20136;-89
2023/08/26 03:52:30;;;;;;;15.20;8.55;;;22.60;77.90;;;;;;4865590;29;20168;-88
2023/08/26 03:54:57;;;;;;;15.20;9.30;;;22.60;78.00;;;;;;4881254;29;20055;-88
2023/08/26 03:57:24;;;;;;;17.83;9.95;;;22.50;78.00;;;;;;4865244;29;20049;-88
2023/08/26 03:59:51;;;;;;;14.65;8.88;;;22.50;78.10;;;;;;4881368;29;20443;-88
2023/08/26 04:02:18;;;;;;;14.65;8.80;;;22.50;78.20;;;;;;4865749;29;20045;-88
2023/08/26 04:04:45;;;;;;;17.25;9.65;;;22.50;78.30;;;;;;4881133;29;20392;-88
2023/08/26 04:07:12;;;;;;;18.77;10.23;;;22.50;78.30;;;;;;4865843;29;20151;-88
2023/08/26 04:09:40;;;;;;;16.55;9.05;;;22.50;78.30;;;;;;4865772;29;20073;-89
2023/08/26 04:12:07;;;;;;;18.63;9.60;;;22.40;78.40;;;;;;4865372;29;20049;-88
2023/08/26 04:14:34;;;;;;;15.63;9.32;;;22.50;78.40;;;;;;4881040;29;20117;-88
2023/08/26 04:17:03;;;;;;;15.00;8.88;;;22.50;78.40;;;;;;4865128;29;20457;-88
2023/08/26 04:19:31;;;;;;;14.63;9.07;;;22.40;78.40;;;;;;4880852;29;20140;-88
2023/08/26 04:22:01;;;;;;;15.18;9.18;;;22.40;78.40;;;;;;4880861;29;20085;-88
2023/08/26 04:24:28;;;;;;;14.02;8.90;;;22.50;78.40;;;;;;4865234;29;20105;-88
2023/08/26 04:26:55;;;;;;;15.63;9.45;;;22.50;78.50;;;;;;4849898;29;20059;-88
2023/08/26 04:29:22;;;;;;;15.27;8.43;;;22.50;78.40;;;;;;4865035;29;20065;-88
2023/08/26 04:31:49;;;;;;;15.23;9.03;;;22.60;78.80;;;;;;4864918;29;20053;-88
2023/08/26 04:34:17;;;;;;;14.32;8.45;;;22.50;78.80;;;;;;4880424;29;20056;-88
2023/08/26 04:36:45;;;;;;;21.38;8.57;;;22.60;78.70;;;;;;4880468;29;20049;-88
2023/08/26 04:39:12;;;;;;;13.35;8.23;;;22.60;78.80;;;;;;4864927;29;20105;-88
2023/08/26 04:41:39;;;;;;;13.60;8.15;;;22.60;79.00;;;;;;4880394;29;20049;-88
2023/08/26 04:44:11;;;;;;;13.03;7.90;;;22.70;79.10;;;;;;4880627;29;20060;-88
2023/08/26 04:46:38;;;;;;;12.70;7.70;;;22.70;79.30;;;;;;4865045;29;20144;-88
2023/08/26 04:49:05;;;;;;;11.65;7.65;;;22.70;79.50;;;;;;4880763;29;20053;-88
2023/08/26 04:51:32;;;;;;;12.52;7.53;;;22.70;79.60;;;;;;4865226;29;20061;-88
2023/08/26 04:53:59;;;;;;;15.68;7.80;;;22.70;79.70;;;;;;4880281;29;20651;-88
2023/08/26 04:56:27;;;;;;;13.80;8.23;;;22.80;79.60;;;;;;4880440;29;20049;-88
2023/08/26 04:58:54;;;;;;;11.60;7.72;;;22.90;79.70;;;;;;4864950;29;20045;-88
2023/08/26 05:01:21;;;;;;;11.32;7.22;;;23.00;79.90;;;;;;4880244;29;20082;-88
2023/08/26 05:03:49;;;;;;;12.80;8.57;;;23.10;79.70;;;;;;4864431;29;20057;-88
2023/08/26 05:06:16;;;;;;;13.00;8.20;;;23.10;79.30;;;;;;4864255;29;20064;-88
2023/08/26 05:08:43;;;;;;;15.07;8.53;;;23.20;79.00;;;;;;4864516;29;20084;-88
2023/08/26 05:11:10;;;;;;;16.20;8.55;;;23.30;79.20;;;;;;4864369;29;20061;-88
2023/08/26 05:13:37;;;;;;;13.77;8.43;;;23.30;79.60;;;;;;4879867;29;20045;-88
2023/08/26 05:16:04;;;;;;;12.75;8.18;;;23.40;79.50;;;;;;4864145;29;20072;-88
2023/08/26 05:18:31;;;;;;;14.95;8.45;;;23.50;79.20;;;;;;4879952;29;20041;-88
2023/08/26 05:21:00;;;;;;;13.27;7.77;;;23.50;79.00;;;;;;4879930;29;20049;-88
2023/08/26 05:23:27;;;;;;;13.38;7.72;;;23.50;78.80;;;;;;4864106;29;20045;-89
2023/08/26 05:25:54;;;;;;;13.45;8.10;;;23.50;79.20;;;;;;4879854;29;20048;-89
2023/08/26 05:28:21;;;;;;;14.52;8.30;;;23.50;79.20;;;;;;4879606;29;20059;-89
2023/08/26 05:30:48;;;;;;;12.63;8.10;;;23.50;79.30;;;;;;4879772;29;20080;-88
2023/08/26 05:33:16;;;;;;;14.27;8.57;;;23.50;79.30;;;;;;4879884;29;20049;-88
2023/08/26 05:35:43;;;;;;;11.00;7.72;;;23.50;79.60;;;;;;4864412;29;20060;-89
2023/08/26 05:38:10;;;;;;;12.45;8.40;;;23.60;79.60;;;;;;4863867;29;20041;-89
2023/08/26 05:40:38;;;;;;;12.10;7.72;;;23.70;79.80;;;;;;4863762;29;20101;-88
2023/08/26 05:43:05;;;;;;;12.68;8.18;;;23.70;79.10;;;;;;4879910;29;20452;-89
2023/08/26 05:45:34;;;;;;;12.50;7.73;;;23.80;78.70;;;;;;4863959;29;20052;-89
2023/08/26 05:48:02;;;;;;;10.90;7.53;;;23.90;78.00;;;;;;4879880;29;20053;-89
2023/08/26 05:50:31;;;;;;;13.13;7.75;;;24.00;77.60;;;;;;4879891;29;20053;-88
2023/08/26 05:52:58;;;;;;;12.02;6.88;;;24.00;77.40;;;;;;4879664;29;20059;-88
2023/08/26 05:55:25;;;;;;;13.23;7.38;;;24.00;77.70;;;;;;4879619;29;20052;-88
2023/08/26 05:57:52;;;;;;;12.43;7.03;;;24.10;77.60;;;;;;4864125;29;20113;-88
2023/08/26 06:00:19;;;;;;;11.20;7.13;;;24.30;77.40;;;;;;4879439;29;20072;-89
2023/08/26 06:02:49;;;;;;;13.07;6.65;;;24.50;76.40;;;;;;4848597;29;20514;-88
2023/08/26 06:05:18;;;;;;;17.98;7.40;;;24.60;75.70;;;;;;4863867;29;20041;-89
2023/08/26 06:07:48;;;;;;;11.02;6.80;;;24.70;75.10;;;;;;4879345;29;20056;-89
2023/08/26 06:10:15;;;;;;;12.60;7.17;;;24.70;75.00;;;;;;4879268;29;20057;-89
2023/08/26 06:12:44;;;;;;;12.52;6.97;;;24.70;75.80;;;;;;4879286;29;20053;-89
2023/08/26 06:15:14;;;;;;;14.98;7.68;;;24.70;75.70;;;;;;4879796;29;20049;-88
2023/08/26 06:17:42;;;;;;;12.60;7.75;;;24.70;75.70;;;;;;4879969;29;20052;-89
2023/08/26 06:20:12;;;;;;;13.23;8.25;;;24.80;75.40;;;;;;4863674;29;20434;-88
2023/08/26 06:22:42;;;;;;;12.63;7.13;;;24.80;75.80;;;;;;4863728;29;20511;-88
2023/08/26 06:25:10;;;;;;;13.50;7.78;;;24.80;75.20;;;;;;4879325;29;20076;-88
2023/08/26 06:27:37;;;;;;;12.57;7.93;;;24.70;75.40;;;;;;4879277;29;20053;-89
2023/08/26 06:30:05;;;;;;;14.27;8.48;;;24.70;75.50;;;;;;4879428;29;20053;-88
2023/08/26 06:32:32;;;;;;;11.82;7.28;;;24.80;75.60;;;;;;4879392;29;20052;-89
2023/08/26 06:35:01;;;;;;;12.37;7.73;;;24.80;75.60;;;;;;4863708;29;20049;-89
2023/08/26 06:37:29;;;;;;;13.05;7.70;;;24.80;75.60;;;;;;4879329;29;20384;-88
2023/08/26 06:39:56;;;;;;;14.32;7.80;;;24.90;75.70;;;;;;4863631;29;20041;-88
2023/08/26 06:42:23;;;;;;;12.68;7.18;;;25.00;75.40;;;;;;4879293;29;20053;-89
2023/08/26 06:44:54;;;;;;;12.32;7.47;;;25.10;75.00;;;;;;4879357;29;20045;-88
2023/08/26 06:47:21;;;;;;;12.87;7.73;;;25.30;75.00;;;;;;4848039;29;20098;-88
2023/08/26 06:49:50;;;;;;;14.70;8.27;;;25.50;74.30;;;;;;4863647;29;20211;-89
2023/08/26 06:52:17;;;;;;;12.18;8.10;;;25.70;74.20;;;;;;4863410;29;20053;-88
2023/08/26 06:54:44;;;;;;;16.13;8.60;;;25.90;73.60;;;;;;4879015;29;20052;-88
2023/08/26 06:57:11;;;;;;;16.15;8.15;;;26.00;74.10;;;;;;4881627;29;20053;-88
2023/08/26 06:59:39;;;;;;;15.63;8.80;;;26.20;73.20;;;;;;4882849;29;20049;-87
2023/08/26 07:02:06;;;;;;;18.02;9.13;;;26.50;73.20;;;;;;4866644;29;20056;-88
2023/08/26 07:04:34;;;;;;;17.90;9.95;;;26.60;73.80;;;;;;4882249;29;20056;-88
2023/08/26 07:07:01;;;;;;;17.08;9.32;;;26.80;72.70;;;;;;4882337;29;20155;-88
2023/08/26 07:09:28;;;;;;;20.40;9.85;;;26.90;72.30;;;;;;4882016;29;20060;-88
2023/08/26 07:11:55;;;;;;;17.57;9.07;;;26.90;72.40;;;;;;4866655;29;20049;-88
2023/08/26 07:14:22;;;;;;;16.15;8.43;;;26.90;72.10;;;;;;4851108;29;20384;-88
2023/08/26 07:16:49;;;;;;;15.30;8.27;;;26.90;71.80;;;;;;4866563;29;20140;-88
2023/08/26 07:19:16;;;;;;;13.63;7.82;;;27.00;71.90;;;;;;4882176;29;20056;-88
2023/08/26 07:21:43;;;;;;;13.73;7.82;;;27.10;72.90;;;;;;4881805;29;20049;-88
2023/08/26 07:24:11;;;;;;;14.40;8.60;;;27.10;72.20;;;;;;4881985;29;20049;-88
2023/08/26 07:26:39;;;;;;;12.35;7.70;;;27.10;72.60;;;;;;4882104;29;20041;-88
2023/08/26 07:29:06;;;;;;;13.10;7.82;;;27.20;72.30;;;;;;4882245;29;20451;-88
2023/08/26 07:31:33;;;;;;;12.50;8.60;;;27.30;71.60;;;;;;4881678;29;20049;-88
2023/08/26 07:34:00;;;;;;;12.32;8.70;;;27.40;72.50;;;;;;4866495;29;20053;-88
2023/08/26 07:36:28;;;;;;;12.70;8.37;;;27.50;72.00;;;;;;4882094;29;20052;-88
2023/08/26 07:38:55;;;;;;;12.05;8.35;;;27.50;71.30;;;;;;4882043;29;20414;-88
2023/08/26 07:41:22;;;;;;;13.73;8.60;;;27.60;71.20;;;;;;4881744;29;20052;-88
2023/08/26 07:43:49;;;;;;;14.10;8.48;;;27.60;71.20;;;;;;4865932;29;20045;-88
2023/08/26 07:46:18;;;;;;;12.32;8.07;;;27.60;71.30;;;;;;4881578;29;20097;-88
2023/08/26 07:48:49;;;;;;;12.00;7.73;;;27.70;71.30;;;;;;4865887;29;20056;-88
2023/08/26 07:51:16;;;;;;;13.70;9.15;;;27.70;70.40;;;;;;4850849;29;20061;-88
2023/08/26 07:53:44;;;;;;;14.60;8.77;;;27.70;70.70;;;;;;4881141;29;20063;-88
2023/08/26 07:56:11;;;;;;;14.35;8.43;;;27.80;70.60;;;;;;4881350;29;20506;-88
2023/08/26 07:58:38;;;;;;;12.73;8.85;;;27.90;69.90;;;;;;4881410;29;20053;-88
2023/08/26 08:01:05;;;;;;;15.37;8.80;;;28.00;69.90;;;;;;4865604;29;20056;-88
2023/08/26 08:03:32;;;;;;;14.35;9.10;;;28.00;69.50;;;;;;4865944;29;20498;-88
2023/08/26 08:05:59;;;;;;;14.05;8.63;;;28.10;69.50;;;;;;4850029;29;20083;-88
2023/08/26 08:08:26;;;;;;;13.85;8.70;;;28.20;69.90;;;;;;4880254;29;20045;-88
2023/08/26 08:10:54;;;;;;;16.77;8.60;;;28.20;70.00;;;;;;4865374;29;20063;-88
2023/08/26 08:13:21;;;;;;;12.50;9.03;;;28.30;69.40;;;;;;4881044;29;20056;-87
2023/08/26 08:15:48;;;;;;;15.05;8.50;;;28.20;69.70;;;;;;4865381;29;20053;-88
2023/08/26 08:18:15;;;;;;;15.18;9.15;;;28.30;69.20;;;;;;4880670;29;20049;-88
2023/08/26 08:20:42;;;;;;;16.13;9.50;;;28.40;68.80;;;;;;4865322;29;20056;-88
2023/08/26 08:23:09;;;;;;;16.83;9.98;;;28.50;69.10;;;;;;4865349;29;20456;-88
2023/08/26 08:25:36;;;;;;;14.53;9.27;;;28.60;69.50;;;;;;4880829;29;20045;-88
2023/08/26 08:28:03;;;;;;;18.40;9.52;;;28.70;67.80;;;;;;4880696;29;20075;-88
2023/08/26 08:30:30;;;;;;;16.13;9.43;;;28.70;66.80;;;;;;4880580;29;20460;-88
2023/08/26 08:32:58;;;;;;;16.38;9.35;;;28.80;66.80;;;;;;4880594;29;20105;-88
2023/08/26 08:35:26;;;;;;;15.50;9.18;;;28.80;66.40;;;;;;4849861;29;20082;-88
2023/08/26 08:37:53;;;;;;;14.80;9.23;;;28.80;66.80;;;;;;4880398;29;20063;-88
2023/08/26 08:40:20;;;;;;;13.70;9.80;;;28.80;67.10;;;;;;4864951;29;20049;-88
2023/08/26 08:42:48;;;;;;;14.32;9.27;;;28.70;67.90;;;;;;4880607;29;20053;-88
2023/08/26 08:45:15;;;;;;;17.58;9.85;;;28.60;68.50;;;;;;4880486;29;20049;-88
2023/08/26 08:47:43;;;;;;;17.88;9.65;;;28.60;68.10;;;;;;4880474;29;20052;-88
2023/08/26 08:50:11;;;;;;;15.53;9.83;;;28.40;68.50;;;;;;4865000;29;20426;-88
2023/08/26 08:52:41;;;;;;;16.60;10.15;;;28.40;69.00;;;;;;4864860;29;20060;-88
2023/08/26 08:55:08;;;;;;;15.45;10.85;;;28.50;69.50;;;;;;4880389;29;20053;-88
2023/08/26 08:57:36;;;;;;;18.10;10.07;;;28.60;70.20;;;;;;4864613;29;20049;-88
2023/08/26 09:00:05;;;;;;;14.90;9.45;;;28.90;70.30;;;;;;4864670;29;20105;-88
2023/08/26 09:02:32;;;;;;;17.87;9.50;;;29.10;68.60;;;;;;4879901;29;20049;-88
2023/08/26 09:04:59;;;;;;;16.42;10.38;;;29.30;67.60;;;;;;4864782;29;20055;-88
2023/08/26 09:07:28;;;;;;;16.65;10.20;;;29.40;66.90;;;;;;4849500;29;20065;-88
2023/08/26 09:09:56;;;;;;;17.30;10.20;;;29.40;66.00;;;;;;4864345;29;20068;-88
2023/08/26 09:12:32;;;;;;;15.43;8.88;;;29.60;65.00;;;;;;4864439;29;20052;-87
2023/08/26 09:14:59;;;;;;;14.13;9.03;;;29.60;62.80;;;;;;4880080;29;20571;-88
2023/08/26 09:17:28;;;;;;;17.38;9.70;;;29.70;63.30;;;;;;4879819;29;20048;-88
2023/08/26 09:19:58;;;;;;;16.73;10.07;;;29.80;63.20;;;;;;4879562;29;20045;-88
2023/08/26 09:22:27;;;;;;;16.92;10.10;;;29.80;64.00;;;;;;4864266;29;20076;-88
2023/08/26 09:24:59;;;;;;;19.48;9.52;;;29.70;63.90;;;;;;4848785;29;20518;-88
2023/08/26 09:27:28;;;;;;;13.83;8.00;;;29.70;63.70;;;;;;4864264;29;20049;-88
2023/08/26 09:29:55;;;;;;;14.32;7.88;;;29.70;62.90;;;;;;4879816;29;20526;-88
2023/08/26 09:32:40;;;;;;;17.60;9.38;;;29.80;62.90;;;;;;4864236;29;20510;-88
2023/08/26 09:35:08;;;;;;;23.95;9.90;;;29.80;64.90;;;;;;4864359;29;20061;-88
2023/08/26 09:37:35;;;;;;;19.05;10.98;;;29.70;65.80;;;;;;4864355;29;20444;-88
2023/08/26 09:40:04;;;;;;;13.83;7.87;;;29.60;65.40;;;;;;4864078;29;20139;-88
2023/08/26 09:42:31;;;;;;;13.50;8.43;;;29.40;64.40;;;;;;4849017;29;20049;-88
2023/08/26 09:44:58;;;;;;;13.32;8.32;;;29.20;65.10;;;;;;4879477;29;20049;-88
2023/08/26 09:47:33;;;;;;;11.85;7.75;;;29.10;65.20;;;;;;4848724;29;20045;-88
2023/08/26 09:50:00;;;;;;;15.93;8.35;;;29.00;66.00;;;;;;4879583;29;20051;-88
2023/08/26 09:52:27;;;;;;;14.20;7.87;;;28.90;65.80;;;;;;4864075;29;20097;-88
2023/08/26 09:54:56;;;;;;;13.52;9.13;;;28.70;66.40;;;;;;4879372;29;20128;-88
2023/08/26 09:57:23;;;;;;;18.35;10.40;;;28.40;66.90;;;;;;4863871;29;20144;-88
2023/08/26 09:59:51;;;;;;;32.20;18.05;;;28.10;66.20;;;;;;4864060;29;20056;-88
2023/08/26 10:02:22;;;;;;;13.70;6.43;;;27.60;64.50;;;;;;4863716;29;20055;-88
2023/08/26 10:04:59;;;;;;;10.90;4.77;;;27.10;65.00;;;;;;4863777;29;20463;-88
2023/08/26 10:07:30;;;;;;;10.65;4.43;;;26.90;65.80;;;;;;4863627;29;20052;-88
2023/08/26 10:10:06;;;;;;;13.60;5.70;;;26.70;66.40;;;;;;4879291;29;20444;-88
2023/08/26 10:12:46;;;;;;;12.32;5.20;;;26.60;67.00;;;;;;4864105;29;20072;-88
2023/08/26 10:15:17;;;;;;;10.27;4.45;;;26.30;68.00;;;;;;4863420;29;20052;-87
2023/08/26 10:17:47;;;;;;;10.20;4.20;;;26.20;68.70;;;;;;4863560;29;20141;-88
2023/08/26 10:20:15;;;;;;;9.70;4.50;;;26.10;69.60;;;;;;4879380;29;20045;-88
2023/08/26 10:22:42;;;;;;;11.55;4.78;;;25.80;69.90;;;;;;4879165;29;20048;-89
2023/08/26 10:25:11;;;;;;;18.48;6.22;;;25.40;71.10;;;;;;4879389;29;20505;-88
2023/08/26 10:27:39;;;;;;;18.83;7.78;;;25.10;73.10;;;;;;4863718;29;20048;-89
2023/08/26 10:30:07;;;;;;;16.47;5.80;;;24.50;75.40;;;;;;4863862;29;20060;-89
2023/08/26 10:32:43;;;;;;;15.10;6.35;;;24.10;77.00;;;;;;4882906;29;20109;-90
2023/08/26 10:35:12;;;;;;;15.73;6.47;;;23.60;78.90;;;;;;4882939;29;20053;-91
2023/08/26 10:37:40;;;;;;;18.23;6.30;;;23.40;80.20;;;;;;4882735;29;20053;-92
2023/08/26 10:40:09;;;;;;;17.60;7.68;;;23.30;80.20;;;;;;4882682;29;20049;-91
2023/08/26 10:42:37;;;;;;;18.07;7.97;;;23.30;80.60;;;;;;4882637;29;20053;-89
2023/08/26 10:45:15;;;;;;;18.58;8.35;;;23.20;80.40;;;;;;4867029;29;20418;-90
2023/08/26 10:47:46;;;;;;;15.57;6.22;;;23.20;80.00;;;;;;4867115;29;20415;-91
2023/08/26 10:50:20;;;;;;;10.65;5.10;;;23.20;79.70;;;;;;4866814;29;20060;-90
2023/08/26 10:53:12;;;;;;;10.45;4.47;;;23.10;79.30;;;;;;4882480;29;20519;-90
2023/08/26 10:55:44;;;;;;;9.43;4.10;;;23.00;78.80;;;;;;4882573;29;20055;-91
2023/08/26 10:58:16;;;;;;;12.25;4.18;;;22.90;78.60;;;;;;4866825;29;20079;-92
2023/08/26 11:00:44;;;;;;;7.55;3.78;;;23.00;78.00;;;;;;4866696;29;20554;-91
2023/08/26 11:03:17;;;;;;;10.07;4.18;;;23.00;77.80;;;;;;4882698;29;20562;-91
2023/08/26 11:05:46;;;;;;;14.75;4.38;;;23.00;77.80;;;;;;4882284;29;20057;-91
2023/08/26 11:08:14;;;;;;;19.47;6.13;;;22.90;78.90;;;;;;4882223;29;20053;-90
2023/08/26 11:10:41;;;;;;;14.63;6.47;;;22.70;79.90;;;;;;4882166;29;20423;-91
2023/08/26 11:13:10;;;;;;;12.98;5.22;;;22.60;81.00;;;;;;4882268;29;20444;-90
2023/08/26 11:15:39;;;;;;;16.48;8.02;;;22.20;81.90;;;;;;4851128;29;20053;-89
2023/08/26 11:18:08;;;;;;;20.83;10.98;;;22.00;82.30;;;;;;4866410;29;20561;-89
2023/08/26 11:20:37;;;;;;;15.80;7.53;;;21.90;82.80;;;;;;4866590;29;20491;-90
2023/08/26 11:23:05;;;;;;;15.90;6.38;;;22.00;82.90;;;;;;4881982;29;20136;-91
2023/08/26 11:25:37;;;;;;;8.93;4.45;;;22.10;82.50;;;;;;4881703;29;20162;-90
2023/08/26 11:28:09;;;;;;;7.90;2.38;;;22.10;82.10;;;;;;4882031;29;20057;-89
2023/08/26 11:30:45;;;;;;;7.82;2.10;;;22.10;81.10;;;;;;4881816;29;20448;-90
2023/08/26 11:33:15;;;;;;;8.77;2.40;;;22.00;81.00;;;;;;4866404;29;20459;-90
2023/08/26 11:35:46;;;;;;;7.57;2.20;;;22.00;81.20;;;;;;4881737;29;20103;-91
2023/08/26 11:38:34;;;;;;;5.78;2.28;;;21.90;81.40;;;;;;4883970;29;20140;-91
2023/08/26 11:41:05;;;;;;;18.13;8.85;;;21.70;82.60;;;;;;4866233;29;20045;-90
2023/08/26 11:43:35;;;;;;;12.35;3.95;;;21.60;82.90;;;;;;4865924;29;20056;-91
2023/08/26 11:46:03;;;;;;;6.23;2.13;;;21.60;82.90;;;;;;4881477;29;20092;-91
2023/08/26 11:48:34;;;;;;;5.72;1.83;;;21.60;82.90;;;;;;4866499;29;20061;-90
2023/08/26 11:51:03;;;;;;;6.03;1.50;;;21.70;81.90;;;;;;4881283;29;20081;-92
2023/08/26 11:53:31;;;;;;;5.35;1.30;;;21.90;81.40;;;;;;4881890;29;20060;-91
2023/08/26 11:55:58;;;;;;;4.00;1.30;;;21.90;80.60;;;;;;4865853;29;20503;-91
2023/08/26 11:58:26;;;;;;;5.00;1.43;;;21.90;80.50;;;;;;4865877;29;20037;-90
2023/08/26 12:00:55;;;;;;;8.68;3.28;;;21.90;80.70;;;;;;4881699;29;20049;-92
2023/08/26 12:03:23;;;;;;;8.00;2.47;;;21.80;82.50;;;;;;4866050;29;20049;-92
2023/08/26 12:05:55;;;;;;;6.63;2.35;;;21.60;82.80;;;;;;4865558;29;20148;-91
2023/08/26 12:08:23;;;;;;;7.15;2.38;;;21.50;82.90;;;;;;4881514;29;20057;-91
2023/08/26 12:10:51;;;;;;;6.73;2.50;;;21.60;83.00;;;;;;4881232;29;20057;-90
2023/08/26 12:13:19;;;;;;;7.28;2.67;;;21.70;82.70;;;;;;4865396;29;20056;-91
2023/08/26 12:15:47;;;;;;;7.45;3.17;;;21.80;82.70;;;;;;4850709;29;20049;-90
2023/08/26 12:18:14;;;;;;;7.60;2.97;;;21.90;82.00;;;;;;4877908;29;20064;-92
2023/08/26 12:20:46;;;;;;;7.45;3.28;;;22.00;81.90;;;;;;4884083;29;20534;-91
2023/08/26 12:23:16;;;;;;;7.83;2.97;;;22.10;82.00;;;;;;4883473;29;20503;-91
2023/08/26 12:25:45;;;;;;;8.43;3.60;;;22.10;81.90;;;;;;4865153;29;20109;-91
2023/08/26 12:28:12;;;;;;;10.77;4.47;;;22.20;82.30;;;;;;4850011;29;20044;-91
2023/08/26 12:30:42;;;;;;;8.98;4.22;;;22.30;82.10;;;;;;4880933;29;20045;-91
2023/08/26 12:33:10;;;;;;;9.15;4.32;;;22.50;81.40;;;;;;4880859;29;20049;-91
2023/08/26 12:35:52;;;;;;;13.10;4.90;;;22.60;81.30;;;;;;4882725;29;20519;-91
2023/08/26 12:38:19;;;;;;;12.82;5.38;;;22.80;81.40;;;;;;4864993;29;20075;-91
2023/08/26 12:40:50;;;;;;;10.70;4.90;;;22.80;81.50;;;;;;4864890;29;20051;-90
2023/08/26 12:43:20;;;;;;;9.70;5.53;;;22.90;81.40;;;;;;4880685;29;20049;-91
2023/08/26 12:45:48;;;;;;;9.85;5.00;;;22.90;81.70;;;;;;4880538;29;20053;-90